Aeroporto :
LOGIN :

Iscrizione | Disclaimer

   EN    FR    IT 

 










Sommario :    VFR   VFR Marginale   IFR   IFR Intensivo   IFR Molto Intensivo
Visibilità : 
Base nubi : 
>= 8 km
>= 3000ft
5 / 8 km
1000 / 3000 ft
1500m / 5 km
500 / 1000 ft
800 / 1500m
200 / 500 ft
< 800m
< 200 ft
Simboli :   Temporali  Nebbia  Neve Forte  Precipitazioni Forti  Vento > 20 kt
SIGMETs :   Varie  Temporali  Ghiacco  Turbolenza  Onda orograficha  Ceneri Vulcaniche






- Altitudine del aeroporto : 464 ft
- Codice IATA : EVX


LFOE - Evreux

ULTIMO METAR :
  • 071000Z AUTO 28005KT 240V310 9999 FEW032 OVC070 15/09 Q1010 TEMPO 4000 SHRA BKN030TCU

METARs OBSOLETI :
  • 070930Z AUTO 31006KT 280V340 9999 FEW028 BKN037 OVC070 16/08 Q1009 TEMPO 4000 SHRA BKN030TCU
  • 070900Z AUTO 28008KT 9999 BKN025 BKN038 BKN047 14/08 Q1009 TEMPO 4000 SHRA BKN030TCU
  • 070830Z AUTO 28008KT 9999 BKN024 OVC068 15/08 Q1009 TEMPO 4000 SHRA BKN030TCU
  • 070800Z AUTO 28007KT 250V320 9999 BKN018 OVC070 13/09 Q1009 TEMPO 4000 SHRA BKN040TCU
  • 070730Z AUTO 28007KT 9999 FEW015 OVC068 13/09 Q1008

TAF TAF LFOE
Valido dal 07 a 09 ore il 08 a 09 ore UTC


070800Z 0709/0809 30010KT 9999 BKN018
PROB30
TEMPO 0710/0717 4000 SHRA BKN030TCU
TEMPO 0709/0716 4000 SHRA BKN040TCU
BECMG 0803/0805 2000 BR OVC004



MetMap, La meteo Aeronautica in un colpo d'occhio ! - Copyright ORBIFLY Dicembre 2007 - Disclaimer

ORBIFLY MET'MAP TEAM :

Programmazione e sviluppo : Alexandra Zaïnal
Concezione : Baudouin d'Aumeries
Aiuto per la programmazione : Marc-Olivier Méhu
Supporto tecnico e logistico : Manuel Goepfert
Aiuto per la traduzione : Arnaldo La Scala

Contatto : metmap@orbifly.com




FONTI E CREDITI :

   NOAA